Archiv-/Tagesdaten

--Timestamp---	Temp	Chill	HIndex	Humid	Dewpt	 Wind 	HiWind	WindDir	Rain 	Barom	Solar	 ET  	 UV 
--------------	----	-----	------	-----	-----	------	------	-------	-----	-----	-----	-----	----
20100803 00:00	16.6	16.6	16.6	92	15.2	8	18	248	0.0	1013.3	0	0.000	0.0
20100803 00:05	16.6	16.6	16.6	92	15.2	8	19	248	0.2	1013.1	0	0.000	0.0
20100803 00:10	16.4	16.4	16.4	92	15.1	11	21	248	0.0	1013.2	0	0.000	0.0
20100803 00:15	16.4	16.4	16.4	92	15.1	11	19	270	0.2	1013.2	0	0.000	0.0
20100803 00:20	16.3	16.3	16.3	92	15.0	10	19	248	0.0	1013.3	0	0.000	0.0
20100803 00:25	16.3	16.3	16.3	92	15.0	10	18	248	0.2	1013.2	0	0.000	0.0
20100803 00:30	16.2	16.2	16.2	92	14.9	11	21	248	0.0	1013.2	0	0.000	0.0
20100803 00:35	16.2	16.2	16.2	92	14.9	10	19	270	0.0	1013.2	0	0.000	0.0
20100803 00:40	16.2	16.2	16.2	92	14.9	11	23	270	0.2	1013.3	0	0.000	0.0
20100803 00:45	16.1	16.1	16.1	92	14.8	10	18	270	0.0	1013.4	0	0.000	0.0
20100803 00:50	16.1	16.1	16.1	92	14.8	11	21	270	0.0	1013.4	0	0.000	0.0
20100803 00:55	16.0	16.0	16.0	92	14.7	13	23	270	0.2	1013.5	0	0.000	0.0
20100803 01:00	15.9	15.9	15.9	92	14.6	14	23	270	0.0	1013.4	0	0.025	0.0
20100803 01:05	15.8	15.8	15.8	92	14.5	11	24	270	0.2	1013.4	0	0.000	0.0
20100803 01:10	15.8	15.8	15.8	92	14.5	8	18	270	0.2	1013.5	0	0.000	0.0
20100803 01:15	15.8	15.8	15.8	92	14.5	6	16	248	0.2	1013.4	0	0.000	0.0
20100803 01:20	15.7	15.7	15.7	92	14.4	8	16	248	0.0	1013.4	0	0.000	0.0
20100803 01:25	15.7	15.7	15.7	92	14.4	8	14	248	0.2	1013.5	0	0.000	0.0
20100803 01:30	15.6	15.6	15.6	92	14.3	8	16	248	0.0	1013.4	0	0.000	0.0
20100803 01:35	15.6	15.6	15.6	92	14.3	8	14	248	0.2	1013.4	0	0.000	0.0
20100803 01:40	15.6	15.6	15.6	92	14.3	5	11	248	0.0	1013.4	0	0.000	0.0
20100803 01:45	15.5	15.5	15.5	92	14.2	6	11	225	0.0	1013.4	0	0.000	0.0
20100803 01:50	15.5	15.5	15.5	93	14.4	6	14	248	0.0	1013.3	0	0.000	0.0
20100803 01:55	15.4	15.4	15.4	93	14.3	6	10	248	0.2	1013.3	0	0.000	0.0
20100803 02:00	15.4	15.4	15.4	93	14.3	6	16	248	0.0	1013.2	0	0.000	0.0
20100803 02:05	15.4	15.4	15.4	93	14.3	6	14	248	0.0	1013.4	0	0.000	0.0
20100803 02:10	15.3	15.3	15.3	93	14.2	8	16	248	0.2	1013.3	0	0.000	0.0
20100803 02:15	15.3	15.3	15.3	92	14.0	6	11	248	0.0	1013.3	0	0.000	0.0
20100803 02:20	15.3	15.3	15.3	92	14.0	8	16	248	0.2	1013.3	0	0.000	0.0
20100803 02:25	15.3	15.3	15.3	93	14.2	6	11	248	0.0	1013.2	0	0.000	0.0
20100803 02:30	15.3	15.3	15.3	93	14.2	6	13	248	0.2	1013.2	0	0.000	0.0
20100803 02:35	15.3	15.3	15.3	93	14.2	8	23	248	0.0	1013.1	0	0.000	0.0
20100803 02:40	15.3	15.3	15.3	93	14.2	8	18	270	0.2	1013.1	0	0.000	0.0
20100803 02:45	15.3	15.3	15.3	93	14.2	10	18	248	0.0	1013.2	0	0.000	0.0
20100803 02:50	15.2	15.2	15.2	93	14.1	10	19	270	0.0	1013.1	0	0.000	0.0
20100803 02:55	15.2	15.2	15.2	93	14.1	8	16	248	0.2	1013.0	0	0.000	0.0
20100803 03:00	15.2	15.2	15.2	93	14.1	8	14	248	0.0	1013.0	0	0.000	0.0
20100803 03:05	15.2	15.2	15.2	93	14.1	6	14	248	0.0	1013.0	0	0.000	0.0
20100803 03:10	15.2	15.2	15.2	93	14.1	6	13	225	0.2	1013.0	0	0.000	0.0
20100803 03:15	15.2	15.2	15.2	93	14.1	6	11	248	0.0	1012.9	0	0.000	0.0
20100803 03:20	15.2	15.2	15.2	93	14.0	6	14	248	0.2	1012.8	0	0.000	0.0
20100803 03:25	15.2	15.2	15.2	93	14.0	8	14	248	0.0	1012.7	0	0.000	0.0
20100803 03:30	15.2	15.2	15.2	93	14.0	8	11	248	0.0	1012.8	0	0.000	0.0
20100803 03:35	15.1	15.1	15.1	93	14.0	8	14	248	0.2	1012.7	0	0.000	0.0
20100803 03:40	15.1	15.1	15.1	93	13.9	8	14	225	0.0	1012.6	0	0.000	0.0
20100803 03:45	15.0	15.0	15.0	93	13.9	8	16	248	0.2	1012.6	0	0.000	0.0
20100803 03:50	15.0	15.0	15.0	93	13.9	8	14	248	0.0	1012.5	0	0.000	0.0
20100803 03:55	15.0	15.0	15.0	93	13.9	6	11	248	0.2	1012.5	0	0.000	0.0
20100803 04:00	15.0	15.0	15.0	93	13.9	6	11	248	0.0	1012.5	0	0.000	0.0
20100803 04:05	15.0	15.0	15.0	93	13.9	5	10	248	0.0	1012.4	0	0.000	0.0
20100803 04:10	15.0	15.0	15.0	93	13.9	6	16	248	0.0	1012.5	0	0.000	0.0
20100803 04:15	15.0	15.0	15.0	93	13.9	5	11	248	0.0	1012.5	0	0.000	0.0
20100803 04:20	15.0	15.0	15.0	93	13.9	5	8	225	0.0	1012.4	0	0.000	0.0
20100803 04:25	15.0	15.0	15.0	93	13.9	5	10	270	0.0	1012.4	0	0.000	0.0
20100803 04:30	15.0	15.0	15.0	93	13.9	5	10	225	0.0	1012.4	0	0.000	0.0
20100803 04:35	15.0	15.0	15.0	93	13.9	5	8	225	0.0	1012.5	0	0.000	0.0
20100803 04:40	15.0	15.0	15.0	93	13.9	5	13	248	0.2	1012.5	0	0.000	0.0
20100803 04:45	15.0	15.0	15.0	93	13.9	5	10	248	0.0	1012.5	0	0.000	0.0
20100803 04:50	15.0	15.0	15.0	93	13.9	5	11	248	0.0	1012.4	0	0.000	0.0
20100803 04:55	15.0	15.0	15.0	93	13.9	6	14	225	0.0	1012.4	0	0.000	0.0
20100803 05:00	15.0	15.0	15.0	93	13.9	5	8	225	0.0	1012.4	0	0.000	0.0
20100803 05:05	15.0	15.0	15.0	93	13.9	5	14	248	0.0	1012.3	0	0.000	0.0
20100803 05:10	15.0	15.0	15.0	93	13.9	5	8	225	0.0	1012.3	0	0.000	0.0
20100803 05:15	15.0	15.0	15.0	93	13.9	5	11	225	0.0	1012.2	0	0.000	0.0
20100803 05:20	15.1	15.1	15.1	93	13.9	5	11	225	0.0	1012.2	0	0.000	0.0
20100803 05:25	15.0	15.0	15.0	93	13.9	5	10	225	0.0	1012.2	0	0.000	0.0
20100803 05:30	15.0	15.0	15.0	93	13.9	3	8	225	0.0	1012.2	0	0.000	0.0
20100803 05:35	15.1	15.1	15.1	93	13.9	3	10	225	0.0	1012.2	0	0.000	0.0
20100803 05:40	15.0	15.0	15.0	93	13.9	6	11	225	0.0	1012.2	0	0.000	0.0
20100803 05:45	15.0	15.0	15.0	93	13.9	5	8	248	0.0	1012.2	0	0.000	0.0
20100803 05:50	15.1	15.1	15.1	93	14.0	5	10	248	0.0	1012.2	0	0.000	0.0
20100803 05:55	15.1	15.1	15.1	93	13.9	5	10	248	0.0	1012.1	0	0.000	0.0
20100803 06:00	15.1	15.1	15.1	93	13.9	3	10	248	0.0	1012.1	0	0.000	0.0
20100803 06:05	15.1	15.1	15.1	93	13.9	5	11	248	0.0	1012.0	0	0.000	0.0
20100803 06:10	15.1	15.1	15.1	93	13.9	6	10	225	0.0	1012.1	1	0.000	0.0
20100803 06:15	15.1	15.1	15.1	93	14.0	5	10	225	0.0	1012.0	6	0.000	0.0
20100803 06:20	15.1	15.1	15.1	93	13.9	5	11	270	0.0	1012.1	10	0.000	0.0
20100803 06:25	15.1	15.1	15.1	93	13.9	5	8	248	0.0	1012.1	8	0.000	0.0
20100803 06:30	15.1	15.1	15.1	93	13.9	6	13	248	0.0	1012.2	7	0.000	0.0
20100803 06:35	15.0	15.0	15.0	93	13.9	6	11	248	0.0	1012.2	8	0.000	0.0
20100803 06:40	15.1	15.1	15.1	93	13.9	8	16	270	0.0	1012.2	10	0.000	0.0
20100803 06:45	15.1	15.1	15.1	93	13.9	8	14	270	0.0	1012.2	13	0.000	0.0
20100803 06:50	15.1	15.1	15.1	93	13.9	6	14	248	0.0	1012.3	15	0.000	0.0
20100803 06:55	15.1	15.1	15.1	93	14.0	8	16	270	0.0	1012.2	19	0.000	0.0
20100803 07:00	15.1	15.1	15.1	93	14.0	8	14	270	0.0	1012.3	24	0.000	0.0
20100803 07:05	15.1	15.1	15.1	93	14.0	6	14	248	0.0	1012.5	26	0.000	0.0
20100803 07:10	15.2	15.2	15.2	93	14.0	6	14	270	0.0	1012.5	27	0.000	0.0
20100803 07:15	15.2	15.2	15.2	93	14.0	6	10	270	0.0	1012.5	32	0.000	0.0
20100803 07:20	15.2	15.2	15.2	93	14.0	5	11	270	0.0	1012.6	32	0.000	0.0
20100803 07:25	15.2	15.2	15.2	93	14.1	6	11	270	0.0	1012.6	34	0.000	0.0
20100803 07:30	15.2	15.2	15.2	93	14.1	6	11	270	0.0	1012.6	32	0.000	0.0
20100803 07:35	15.3	15.3	15.3	93	14.2	6	14	270	0.0	1012.6	38	0.000	0.0
20100803 07:40	15.3	15.3	15.3	93	14.2	6	16	248	0.0	1012.6	40	0.000	0.0
20100803 07:45	15.3	15.3	15.3	92	14.0	8	18	248	0.0	1012.7	37	0.000	0.0
20100803 07:50	15.3	15.3	15.3	92	14.0	8	16	270	0.0	1012.7	48	0.000	0.0
20100803 07:55	15.4	15.4	15.4	93	14.3	10	21	248	0.0	1012.7	47	0.000	0.0
20100803 08:00	15.4	15.4	15.4	92	14.1	11	18	270	0.0	1012.6	53	0.025	0.0
20100803 08:05	15.4	15.4	15.4	92	14.1	11	21	270	0.0	1012.7	64	0.000	0.5
20100803 08:10	15.5	15.5	15.5	92	14.2	8	19	270	0.0	1012.8	84	0.000	0.5
20100803 08:15	15.6	15.6	15.6	92	14.3	10	23	270	0.0	1012.8	110	0.000	0.6
20100803 08:20	15.7	15.7	15.7	92	14.4	11	21	270	0.0	1012.8	95	0.000	0.7
20100803 08:25	15.7	15.7	15.7	91	14.2	10	23	270	0.0	1012.9	90	0.000	0.7
20100803 08:30	15.8	15.8	15.8	92	14.5	10	18	270	0.0	1012.9	111	0.000	0.5
20100803 08:35	15.8	15.8	15.8	91	14.4	11	19	270	0.0	1012.9	72	0.000	0.0
20100803 08:40	15.9	15.9	15.9	91	14.4	10	18	270	0.0	1012.9	96	0.000	0.2
20100803 08:45	15.9	15.9	15.9	91	14.5	10	21	292	0.0	1012.9	83	0.000	0.2
20100803 08:50	15.9	15.9	15.9	90	14.3	11	21	270	0.0	1012.9	82	0.000	0.4
20100803 08:55	15.9	15.9	15.9	90	14.3	11	18	270	0.0	1013.1	102	0.000	0.7
20100803 09:00	16.1	16.1	16.1	90	14.4	8	16	270	0.0	1013.1	152	0.051	0.9
20100803 09:05	16.2	16.2	16.2	90	14.5	6	18	270	0.0	1013.1	199	0.000	1.2
20100803 09:10	16.3	16.3	16.3	90	14.6	11	23	270	0.0	1013.1	160	0.000	1.0
20100803 09:15	16.3	16.3	16.3	89	14.5	11	19	270	0.0	1013.1	159	0.000	1.0
20100803 09:20	16.4	16.4	16.4	89	14.6	10	18	270	0.0	1013.1	234	0.000	1.3
20100803 09:25	16.5	16.5	16.5	88	14.5	10	21	270	0.0	1013.1	227	0.000	1.3
20100803 09:30	16.6	16.6	16.6	88	14.6	11	19	270	0.0	1013.1	222	0.000	1.4
20100803 09:35	16.7	16.7	16.7	88	14.7	11	19	270	0.0	1013.1	206	0.000	1.2
20100803 09:40	16.7	16.7	16.7	88	14.7	11	23	270	0.0	1013.2	221	0.000	1.5
20100803 09:45	16.8	16.8	16.8	88	14.8	10	19	270	0.0	1013.2	360	0.000	2.2
20100803 09:50	17.1	17.1	17.1	87	14.9	10	19	270	0.0	1013.1	309	0.000	1.9
20100803 09:55	17.2	17.2	17.2	87	15.0	8	16	270	0.0	1013.1	226	0.000	1.6
20100803 10:00	17.3	17.3	17.3	86	14.9	10	21	270	0.0	1013.1	202	0.127	1.5
20100803 10:05	17.3	17.3	17.3	86	14.9	6	18	270	0.0	1013.2	114	0.000	0.9
20100803 10:10	17.2	17.2	17.2	85	14.6	13	21	270	0.0	1013.3	108	0.000	1.1
20100803 10:15	17.1	17.1	17.1	85	14.5	11	23	270	0.0	1013.3	141	0.000	1.5
20100803 10:20	17.0	17.0	17.0	85	14.5	10	18	270	0.0	1013.2	196	0.000	1.9
20100803 10:25	17.1	17.1	17.1	85	14.5	11	18	292	0.0	1013.2	265	0.000	2.3
20100803 10:30	17.2	17.2	17.2	85	14.7	6	14	270	0.0	1013.2	231	0.000	1.9
20100803 10:35	17.3	17.3	17.3	85	14.8	8	16	292	0.0	1013.2	115	0.000	0.7
20100803 10:40	17.3	17.3	17.3	86	15.0	10	23	270	0.6	1013.3	37	0.000	0.0
20100803 10:45	16.8	16.8	16.8	83	13.9	11	24	292	1.0	1013.3	66	0.000	0.4
20100803 10:50	16.3	16.3	16.3	85	13.8	13	18	292	0.0	1013.3	151	0.000	1.4
20100803 10:55	16.2	16.2	16.2	87	14.1	11	24	292	0.0	1013.5	226	0.000	2.2
20100803 11:00	16.3	16.3	16.3	88	14.3	13	23	270	0.0	1013.5	203	0.102	2.3
20100803 11:05	16.3	16.3	16.3	87	14.1	16	26	292	0.0	1013.4	222	0.000	2.6
20100803 11:10	16.4	16.4	16.4	87	14.3	14	29	292	0.0	1013.4	357	0.000	3.9
20100803 11:15	16.8	16.8	16.8	87	14.6	13	24	292	0.0	1013.4	524	0.000	4.5
20100803 11:20	17.2	17.2	17.2	87	15.0	14	26	292	0.0	1013.3	892	0.000	5.2
20100803 11:25	17.6	17.6	17.6	84	14.8	14	29	292	0.0	1013.2	349	0.000	4.0
20100803 11:30	17.6	17.6	17.6	81	14.3	16	24	292	0.0	1013.2	349	0.000	3.9
20100803 11:35	17.7	17.7	17.7	81	14.4	13	23	315	0.0	1013.2	298	0.000	3.4
20100803 11:40	17.7	17.7	17.7	81	14.4	13	23	292	0.0	1013.3	309	0.000	4.2
20100803 11:45	17.7	17.7	17.7	80	14.2	13	24	292	0.0	1013.2	644	0.000	5.5
20100803 11:50	18.0	18.0	18.0	80	14.5	14	26	292	0.0	1013.2	846	0.000	5.8
20100803 11:55	18.3	18.3	18.3	77	14.2	16	23	270	0.0	1013.2	277	0.000	3.6
20100803 12:00	18.2	18.2	18.2	79	14.5	16	27	292	0.0	1013.3	214	0.305	2.0
20100803 12:05	17.8	17.8	17.8	80	14.3	13	23	292	0.0	1013.3	175	0.000	2.0
20100803 12:10	17.6	17.6	17.6	81	14.3	11	23	292	0.0	1013.5	171	0.000	2.0
20100803 12:15	17.4	17.4	17.4	80	14.0	14	23	292	0.0	1013.4	174	0.000	2.3
20100803 12:20	17.4	17.4	17.4	81	14.1	13	23	292	0.0	1013.4	251	0.000	3.3
20100803 12:25	17.4	17.4	17.4	80	13.9	11	21	270	0.0	1013.4	311	0.000	4.0
20100803 12:30	17.6	17.6	17.6	80	14.1	10	21	270	0.0	1013.4	401	0.000	5.6
20100803 12:35	17.9	17.9	17.9	80	14.4	11	19	292	0.0	1013.4	663	0.000	6.9
20100803 12:40	18.6	18.6	18.6	75	14.0	16	29	270	0.0	1013.2	709	0.000	6.1
20100803 12:45	18.7	18.7	18.7	72	13.5	16	27	270	0.0	1013.2	556	0.000	5.1
20100803 12:50	18.9	18.9	18.9	73	14.0	11	21	270	0.0	1013.1	780	0.000	7.0
20100803 12:55	19.3	19.3	19.3	73	14.3	14	24	270	0.0	1012.9	1023	0.000	7.0
20100803 13:00	19.7	19.7	19.7	69	13.9	14	26	270	0.0	1013.0	955	0.330	7.8
20100803 13:05	20.2	20.2	20.2	70	14.5	16	26	270	0.0	1013.0	984	0.000	7.8
20100803 13:10	20.4	20.4	20.4	67	14.0	14	27	292	0.0	1012.9	977	0.000	6.9
20100803 13:15	20.4	20.4	20.4	67	14.1	18	32	270	0.0	1012.9	1058	0.000	7.8
20100803 13:20	20.3	20.3	20.3	67	14.0	16	29	315	0.0	1012.9	219	0.000	3.7
20100803 13:25	19.8	19.8	19.8	72	14.6	11	26	315	0.0	1012.9	793	0.000	6.1
20100803 13:30	19.9	19.9	19.9	71	14.5	10	21	315	0.0	1012.9	911	0.000	8.1
20100803 13:35	20.3	20.3	20.3	69	14.4	14	26	292	0.0	1012.8	890	0.000	7.2
20100803 13:40	20.3	20.3	20.3	63	13.1	18	32	292	0.0	1012.8	264	0.000	6.5
20100803 13:45	20.4	20.4	20.4	65	13.6	16	27	292	0.0	1012.8	509	0.000	6.3
20100803 13:50	20.5	20.5	20.5	66	13.9	18	26	270	0.0	1012.7	314	0.000	5.0
20100803 13:55	20.3	20.3	20.3	68	14.2	16	32	292	0.0	1012.8	356	0.000	5.0
20100803 14:00	20.1	20.1	20.1	66	13.6	13	24	292	0.0	1012.9	328	0.432	3.8
20100803 14:05	19.8	19.8	19.8	66	13.2	14	27	292	0.0	1013.0	318	0.000	3.5
20100803 14:10	19.7	19.7	19.7	67	13.4	13	27	270	0.0	1013.1	411	0.000	4.5
20100803 14:15	19.8	19.8	19.8	65	13.0	13	21	292	0.0	1013.1	503	0.000	5.3
20100803 14:20	20.0	20.0	20.0	67	13.7	11	23	292	0.0	1013.2	356	0.000	5.1
20100803 14:25	19.9	19.9	19.9	64	12.9	18	29	270	0.0	1013.3	237	0.000	2.6
20100803 14:30	19.7	19.7	19.7	64	12.7	16	27	292	0.0	1013.3	209	0.000	2.3
20100803 14:35	19.4	19.4	19.4	64	12.5	16	24	292	0.0	1013.4	214	0.000	2.3
20100803 14:40	19.3	19.3	19.3	67	13.0	11	19	315	0.0	1013.3	229	0.000	2.4
20100803 14:45	19.2	19.2	19.2	69	13.3	16	27	292	0.0	1013.4	137	0.000	1.4
20100803 14:50	18.9	18.9	18.9	71	13.5	14	26	315	0.0	1013.5	195	0.000	2.1
20100803 14:55	18.8	18.8	18.8	70	13.2	16	32	315	0.0	1013.6	294	0.000	3.2
20100803 15:00	18.7	18.7	18.7	70	13.1	14	24	315	0.0	1013.6	297	0.229	3.1
20100803 15:05	18.7	18.7	18.7	71	13.4	13	26	315	0.0	1013.6	312	0.000	3.3
20100803 15:10	18.7	18.7	18.7	68	12.7	16	29	292	0.0	1013.6	274	0.000	2.9
20100803 15:15	18.7	18.7	18.7	68	12.6	14	24	292	0.0	1013.6	234	0.000	2.4
20100803 15:20	18.7	18.7	18.7	69	12.9	10	19	292	0.0	1013.6	211	0.000	2.1
20100803 15:25	18.7	18.7	18.7	68	12.7	10	18	292	0.0	1013.5	283	0.000	2.6
20100803 15:30	18.8	18.8	18.8	68	12.8	10	19	292	0.0	1013.5	385	0.000	3.5
20100803 15:35	19.1	19.1	19.1	68	13.0	11	21	292	0.0	1013.5	395	0.000	3.4
20100803 15:40	19.2	19.2	19.2	67	12.9	8	16	315	0.0	1013.3	356	0.000	3.2
20100803 15:45	19.2	19.2	19.2	68	13.2	11	19	292	0.0	1013.3	212	0.000	2.0
20100803 15:50	19.2	19.2	19.2	68	13.1	8	18	292	0.0	1013.3	235	0.000	2.2
20100803 15:55	19.3	19.3	19.3	67	13.0	11	19	292	0.0	1013.3	615	0.000	4.1
20100803 16:00	19.7	19.7	19.7	66	13.2	10	18	270	0.0	1013.2	450	0.229	3.1
20100803 16:05	20.0	20.0	20.0	64	13.0	8	16	292	0.0	1013.2	258	0.000	2.4
20100803 16:10	19.9	19.9	19.9	65	13.1	10	16	292	0.0	1013.1	186	0.000	1.5
20100803 16:15	19.8	19.8	19.8	66	13.2	8	16	315	0.0	1013.2	221	0.000	1.8
20100803 16:20	19.8	19.8	19.8	66	13.2	5	10	315	0.0	1013.1	238	0.000	1.8
20100803 16:25	19.9	19.9	19.9	67	13.6	8	16	315	0.0	1013.0	378	0.000	2.5
20100803 16:30	20.1	20.1	20.1	65	13.3	10	18	292	0.0	1013.1	391	0.000	2.6
20100803 16:35	20.2	20.2	20.2	63	12.9	13	23	292	0.0	1013.2	312	0.000	2.4
20100803 16:40	20.2	20.2	20.2	62	12.6	11	27	270	0.0	1013.3	254	0.000	2.0
20100803 16:45	20.0	20.0	20.0	61	12.2	11	21	270	0.0	1013.2	239	0.000	1.7
20100803 16:50	19.9	19.9	19.9	61	12.1	11	23	292	0.0	1013.2	393	0.000	2.3
20100803 16:55	19.9	19.9	19.9	60	11.9	14	23	292	0.0	1013.2	269	0.000	2.1
20100803 17:00	19.7	19.7	19.7	60	11.7	13	24	270	0.0	1013.2	155	0.229	1.5
20100803 17:05	19.5	19.5	19.5	62	12.0	13	24	270	0.0	1013.2	86	0.000	0.9
20100803 17:10	19.2	19.2	19.2	63	12.0	16	26	270	0.0	1013.2	64	0.000	0.6
20100803 17:15	19.0	19.0	19.0	65	12.3	11	18	292	0.0	1013.3	55	0.000	0.2
20100803 17:20	18.9	18.9	18.9	66	12.4	11	18	270	0.0	1013.3	56	0.000	0.0
20100803 17:25	18.8	18.8	18.8	67	12.5	11	16	292	0.0	1013.3	67	0.000	0.4
20100803 17:30	18.7	18.7	18.7	68	12.7	8	13	292	0.0	1013.3	87	0.000	0.6
20100803 17:35	18.7	18.7	18.7	68	12.7	8	14	292	0.0	1013.3	102	0.000	0.7
20100803 17:40	18.7	18.7	18.7	67	12.5	8	14	270	0.0	1013.3	129	0.000	0.8
20100803 17:45	18.8	18.8	18.8	68	12.8	8	16	270	0.0	1013.3	186	0.000	1.0
20100803 17:50	18.9	18.9	18.9	68	12.8	13	19	270	0.0	1013.4	216	0.000	1.1
20100803 17:55	18.9	18.9	18.9	68	12.9	10	21	270	0.0	1013.4	248	0.000	1.1
20100803 18:00	19.1	19.1	19.1	67	12.8	11	21	248	0.0	1013.4	212	0.127	1.1
20100803 18:05	19.1	19.1	19.1	68	13.0	11	19	270	0.0	1013.4	281	0.000	1.1
20100803 18:10	19.3	19.3	19.3	67	13.0	14	26	270	0.0	1013.4	236	0.000	1.2
20100803 18:15	19.2	19.2	19.2	66	12.7	13	23	248	0.0	1013.3	123	0.000	0.9
20100803 18:20	19.0	19.0	19.0	68	13.0	8	19	248	0.0	1013.5	102	0.000	0.8
20100803 18:25	18.8	18.8	18.8	68	12.7	11	18	248	0.0	1013.5	75	0.000	0.7
20100803 18:30	18.6	18.6	18.6	69	12.8	10	19	248	0.0	1013.5	52	0.000	0.1
20100803 18:35	18.3	18.3	18.3	69	12.5	13	21	248	0.0	1013.5	59	0.000	0.2
20100803 18:40	18.2	18.2	18.2	71	12.8	8	18	248	0.0	1013.5	55	0.000	0.0
20100803 18:45	18.1	18.1	18.1	70	12.5	10	19	270	0.0	1013.7	49	0.000	0.0
20100803 18:50	17.9	17.9	17.9	71	12.6	8	19	270	0.0	1013.7	53	0.000	0.0
20100803 18:55	17.9	17.9	17.9	72	12.8	6	14	270	0.0	1013.8	48	0.000	0.0
20100803 19:00	17.8	17.8	17.8	72	12.7	8	16	270	0.0	1013.8	41	0.102	0.0
20100803 19:05	17.8	17.8	17.8	73	12.9	6	14	248	0.0	1013.7	39	0.000	0.0
20100803 19:10	17.8	17.8	17.8	73	12.9	6	13	248	0.0	1013.8	40	0.000	0.0
20100803 19:15	17.7	17.7	17.7	73	12.8	8	18	270	0.0	1013.8	44	0.000	0.0
20100803 19:20	17.7	17.7	17.7	73	12.8	6	14	248	0.0	1013.9	44	0.000	0.0
20100803 19:25	17.6	17.6	17.6	73	12.7	8	14	270	0.0	1014.0	35	0.000	0.0
20100803 19:30	17.6	17.6	17.6	74	12.9	8	16	248	0.0	1014.0	29	0.000	0.0
20100803 19:35	17.5	17.5	17.5	74	12.8	6	16	248	0.0	1014.0	32	0.000	0.0
20100803 19:40	17.4	17.4	17.4	74	12.8	8	16	248	0.0	1014.2	28	0.000	0.0
20100803 19:45	17.4	17.4	17.4	75	12.9	5	10	270	0.0	1014.3	26	0.000	0.0
20100803 19:50	17.3	17.3	17.3	74	12.6	8	14	248	0.0	1014.4	22	0.000	0.0
20100803 19:55	17.3	17.3	17.3	74	12.6	6	11	270	0.0	1014.4	18	0.000	0.0
20100803 20:00	17.3	17.3	17.3	74	12.6	6	11	270	0.0	1014.5	9	0.051	0.0
20100803 20:05	17.2	17.2	17.2	74	12.5	8	14	270	0.0	1014.4	5	0.000	0.0
20100803 20:10	17.1	17.1	17.1	75	12.6	8	14	270	0.0	1014.4	5	0.000	0.0
20100803 20:15	16.9	16.9	16.9	77	12.8	5	10	248	0.0	1014.4	5	0.000	0.0
20100803 20:20	16.7	16.7	16.7	79	13.0	3	10	248	0.0	1014.6	6	0.000	0.0
20100803 20:25	16.6	16.6	16.6	79	12.9	5	11	248	0.0	1014.7	4	0.000	0.0
20100803 20:30	16.4	16.4	16.4	81	13.2	6	10	248	0.0	1014.7	0	0.000	0.0
20100803 20:35	16.3	16.3	16.3	81	13.1	5	10	248	0.0	1014.8	0	0.000	0.0
20100803 20:40	16.3	16.3	16.3	82	13.2	3	8	248	0.0	1014.7	0	0.000	0.0
20100803 20:45	16.2	16.2	16.2	81	13.0	6	16	248	0.0	1014.9	0	0.000	0.0
20100803 20:50	16.2	16.2	16.2	83	13.3	8	13	292	0.0	1015.0	0	0.000	0.0
20100803 20:55	15.9	15.9	15.9	82	12.9	14	24	292	0.4	1015.3	0	0.000	0.0
20100803 21:00	15.5	15.5	15.5	83	12.6	8	16	270	0.8	1015.4	0	0.025	0.0
20100803 21:05	15.0	15.0	15.0	84	12.3	6	11	270	0.6	1015.3	0	0.000	0.0
20100803 21:10	14.7	14.7	14.7	85	12.2	2	6	270	0.0	1015.1	0	0.000	0.0
20100803 21:15	14.5	14.5	14.5	87	12.4	2	6	270	0.0	1015.4	0	0.000	0.0
20100803 21:20	14.4	14.4	14.4	88	12.5	2	5	270	0.0	1015.5	0	0.000	0.0
20100803 21:25	14.3	14.3	14.3	88	12.4	5	10	270	0.2	1015.4	0	0.000	0.0
20100803 21:30	14.2	14.2	14.2	87	12.1	5	10	202	0.0	1015.4	0	0.000	0.0
20100803 21:35	14.2	14.2	14.2	88	12.2	6	8	202	0.0	1015.4	0	0.000	0.0
20100803 21:40	14.2	14.2	14.2	89	12.4	2	8	202	0.0	1015.4	0	0.000	0.0
20100803 21:45	14.2	14.2	14.2	89	12.4	3	6	202	0.0	1015.4	0	0.000	0.0
20100803 21:50	14.3	14.3	14.3	89	12.5	3	8	202	0.0	1015.4	0	0.000	0.0
20100803 21:55	14.4	14.4	14.4	90	12.8	3	8	202	0.0	1015.5	0	0.000	0.0
20100803 22:00	14.4	14.4	14.4	90	12.8	2	6	202	0.0	1015.4	0	0.025	0.0
20100803 22:05	14.5	14.5	14.5	90	12.9	5	8	202	0.0	1015.6	0	0.000	0.0
20100803 22:10	14.6	14.6	14.6	90	12.9	5	6	202	0.0	1015.6	0	0.000	0.0
20100803 22:15	14.6	14.6	14.6	90	13.0	5	10	202	0.4	1015.6	0	0.000	0.0
20100803 22:20	14.7	14.7	14.7	90	13.0	5	10	202	0.0	1015.5	0	0.000	0.0
20100803 22:25	14.6	14.6	14.6	92	13.3	5	8	202	0.0	1015.6	0	0.000	0.0
20100803 22:30	14.6	14.6	14.6	90	12.9	5	10	202	0.0	1015.7	0	0.000	0.0
20100803 22:35	14.6	14.6	14.6	90	12.9	3	8	202	0.0	1015.7	0	0.000	0.0
20100803 22:40	14.6	14.6	14.6	90	12.9	2	6	202	0.0	1015.7	0	0.000	0.0
20100803 22:45	14.6	14.6	14.6	90	12.9	0	6	202	0.0	1015.7	0	0.000	0.0
20100803 22:50	14.6	14.6	14.6	90	12.9	3	6	202	0.0	1015.8	0	0.000	0.0
20100803 22:55	14.5	14.5	14.5	90	12.9	0	2	202	0.0	1015.6	0	0.000	0.0
20100803 23:00	14.4	14.4	14.4	90	12.8	0	0	-100000	0.0	1015.6	0	0.000	0.0
20100803 23:05	14.5	14.5	14.5	90	12.9	0	2	202	0.0	1015.3	0	0.000	0.0
20100803 23:10	14.5	14.5	14.5	91	13.0	0	5	202	0.0	1015.3	0	0.000	0.0
20100803 23:15	14.5	14.5	14.5	91	13.0	0	5	202	0.0	1015.2	0	0.000	0.0
20100803 23:20	14.4	14.4	14.4	91	13.0	0	2	202	0.0	1015.2	0	0.000	0.0
20100803 23:25	14.4	14.4	14.4	91	12.9	0	5	202	0.0	1015.2	0	0.000	0.0
20100803 23:30	14.4	14.4	14.4	91	12.9	2	5	202	0.0	1015.2	0	0.000	0.0
20100803 23:35	14.3	14.3	14.3	91	12.9	0	2	202	0.0	1015.1	0	0.000	0.0
20100803 23:40	14.3	14.3	14.3	90	12.7	0	5	202	0.0	1015.3	0	0.000	0.0
20100803 23:45	14.3	14.3	14.3	90	12.7	0	5	202	0.0	1015.2	0	0.000	0.0
20100803 23:50	14.3	14.3	14.3	90	12.7	3	6	202	0.0	1015.2	0	0.000	0.0
20100803 23:55	14.3	14.3	14.3	90	12.7	2	6	202	0.0	1015.2	0	0.000	0.0
--------------------------------------------------------------------------------------------------------------------
Please note the license to use and transfer of this data:
http://creativecommons.org/licenses/by-nc-sa/3.0/deed.en

Bitte beachten sie die Lizenz zur Verwertung und Weitergabe der Daten:
http://creativecommons.org/licenses/by-nc-sa/3.0/deed.de



Please note the license to use and transfer of this data:
http://creativecommons.org/licenses/by-nc-sa/3.0/deed.en

Bitte beachten sie die Lizenz zur Verwertung und Weitergabe der Daten:
http://creativecommons.org/licenses/by-nc-sa/3.0/deed.de

zurück zur Übersicht der Archivdaten (Monats und Tagesdaten)

Cookies helfen bei der Bereitstellung von Inhalten. Durch die Nutzung dieser Seiten erklärst du dich damit einverstanden, dass Cookies auf deinem Rechner gespeichert werden. Weitere Information